Time;durP1;ratioP1;P1;durP2;ratioP2;P2;SDS_P1;SDS_P2;PMS_P1;PMS_P2;Temp;Humidity;BMP_temperature;BMP_pressure;BME280_temperature;BME280_humidity;BME280_pressure;Samples;Min_cycle;Max_cycle;Signal;HPM_P1;HPM_P2
2021/04/06 00:00:06;;;;;;;1.70;1.60;;;-0.30;99.90;;;;;;5032206;28;20436;-83
2021/04/06 00:02:33;;;;;;;7.03;2.53;;;-0.20;99.90;;;;;;5031933;28;20425;-83
2021/04/06 00:05:04;;;;;;;2.13;1.90;;;-0.20;99.90;;;;;;5032388;28;20428;-83
2021/04/06 00:07:31;;;;;;;2.73;1.57;;;-0.80;99.90;;;;;;5032021;28;20784;-83
2021/04/06 00:10:05;;;;;;;1.63;1.53;;;-0.30;99.90;;;;;;5031850;28;20479;-83
2021/04/06 00:12:31;;;;;;;3.70;1.97;;;-0.70;99.90;;;;;;5033153;28;20546;-83
2021/04/06 00:14:58;;;;;;;2.43;2.00;;;-0.40;99.90;;;;;;5032168;28;20554;-83
2021/04/06 00:17:26;;;;;;;2.07;1.97;;;-0.90;99.90;;;;;;5031763;28;20903;-83
2021/04/06 00:19:55;;;;;;;3.90;2.30;;;-0.80;99.90;;;;;;5032230;28;20431;-83
2021/04/06 00:22:22;;;;;;;5.13;1.83;;;-0.90;99.90;;;;;;5031987;28;20418;-83
2021/04/06 00:24:51;;;;;;;2.23;1.90;;;-0.50;99.90;;;;;;5031486;28;20439;-83
2021/04/06 00:27:41;;;;;;;5.50;1.93;;;-0.80;99.90;;;;;;5031606;28;20407;-83
2021/04/06 00:30:22;;;;;;;3.77;1.03;;;-0.50;99.90;;;;;;5047941;28;20539;-83
2021/04/06 00:32:54;;;;;;;1.63;1.53;;;-0.50;99.90;;;;;;5022449;28;20476;-83
2021/04/06 00:35:27;;;;;;;3.90;1.50;;;-0.40;99.90;;;;;;5017179;28;20878;-83
2021/04/06 00:37:53;;;;;;;2.80;2.07;;;-0.50;99.90;;;;;;5031648;28;20556;-82
2021/04/06 00:40:19;;;;;;;3.60;1.77;;;-0.50;99.90;;;;;;5031612;28;20426;-83
2021/04/06 00:42:45;;;;;;;7.83;2.53;;;-0.50;99.90;;;;;;5031985;28;20454;-83
2021/04/06 00:45:14;;;;;;;2.83;2.20;;;-0.60;99.90;;;;;;5031917;28;20451;-83
2021/04/06 00:47:40;;;;;;;2.90;1.83;;;-0.40;99.90;;;;;;5048054;28;20469;-83
2021/04/06 00:50:12;;;;;;;3.87;1.93;;;-0.80;99.90;;;;;;5031601;28;20419;-83
2021/04/06 00:52:44;;;;;;;2.43;2.20;;;-0.80;99.90;;;;;;5032427;28;20557;-83
2021/04/06 00:55:17;;;;;;;2.90;2.20;;;-0.70;99.90;;;;;;5031865;28;20419;-83
2021/04/06 00:57:44;;;;;;;3.40;1.90;;;-0.70;99.90;;;;;;5032565;28;20934;-83
2021/04/06 01:00:21;;;;;;;3.63;3.40;;;-0.80;99.90;;;;;;5030854;28;20411;-83
2021/04/06 01:03:16;;;;;;;1.60;1.43;;;-0.70;99.90;;;;;;5032233;28;20438;-83
2021/04/06 01:06:01;;;;;;;1.30;1.20;;;-0.70;99.90;;;;;;5031252;28;20416;-83
2021/04/06 01:08:32;;;;;;;4.50;1.87;;;-0.80;99.90;;;;;;5047909;28;20419;-83
2021/04/06 01:11:00;;;;;;;2.03;1.83;;;-1.20;99.90;;;;;;5030909;28;20466;-83
2021/04/06 01:13:27;;;;;;;4.53;2.00;;;-1.20;99.90;;;;;;5030935;28;21031;-83
2021/04/06 01:15:53;;;;;;;2.03;1.87;;;-1.30;99.90;;;;;;5031288;28;20427;-83
2021/04/06 01:18:21;;;;;;;3.23;1.40;;;-1.00;99.90;;;;;;5030606;28;20427;-84
2021/04/06 01:20:46;;;;;;;2.07;1.47;;;-1.40;99.90;;;;;;5031344;28;20426;-83
2021/04/06 01:23:18;;;;;;;2.00;1.90;;;-1.20;99.90;;;;;;5031218;28;20502;-83
2021/04/06 01:25:45;;;;;;;2.43;1.67;;;-1.40;99.90;;;;;;5030983;28;20176;-83
2021/04/06 01:28:12;;;;;;;3.50;2.20;;;-0.90;99.90;;;;;;5032002;28;20466;-83
2021/04/06 01:30:46;;;;;;;2.70;1.77;;;-1.30;99.90;;;;;;5029342;28;20438;-82
2021/04/06 01:33:16;;;;;;;3.67;2.13;;;-1.10;99.90;;;;;;5030360;28;20470;-83
2021/04/06 01:35:49;;;;;;;3.03;2.00;;;-1.30;99.90;;;;;;5031481;28;20450;-83
2021/04/06 01:38:16;;;;;;;4.30;1.60;;;-1.20;99.90;;;;;;5030507;28;20443;-83
2021/04/06 01:40:46;;;;;;;2.30;1.67;;;-1.10;99.90;;;;;;5030884;28;20454;-83
2021/04/06 01:43:13;;;;;;;2.47;1.77;;;-1.50;99.90;;;;;;5031086;28;20861;-83
2021/04/06 01:45:46;;;;;;;4.87;2.10;;;-1.10;99.90;;;;;;5034266;28;20783;-83
2021/04/06 01:48:14;;;;;;;1.90;1.30;;;-1.10;99.90;;;;;;5035090;28;20419;-83
2021/04/06 01:50:51;;;;;;;1.33;1.23;;;-1.10;99.90;;;;;;5035222;28;20792;-83
2021/04/06 01:53:19;;;;;;;5.43;1.50;;;-1.60;99.90;;;;;;5034938;28;20779;-84
2021/04/06 01:56:01;;;;;;;4.50;1.10;;;-1.40;99.90;;;;;;5034803;28;20502;-84
2021/04/06 01:58:28;;;;;;;4.63;1.73;;;-0.90;99.90;;;;;;5034527;28;20538;-84
2021/04/06 02:01:12;;;;;;;1.73;1.63;;;-0.90;99.90;;;;;;5034680;28;20466;-83
2021/04/06 02:03:54;;;;;;;1.73;1.30;;;-0.70;99.90;;;;;;5034273;28;20423;-83
2021/04/06 02:06:22;;;;;;;2.67;1.73;;;-0.90;99.90;;;;;;5034238;28;20431;-84
2021/04/06 02:08:49;;;;;;;1.43;1.10;;;-0.90;99.90;;;;;;5033770;28;20481;-83
2021/04/06 02:11:29;;;;;;;4.63;1.40;;;-0.80;99.90;;;;;;5034116;28;20434;-84
2021/04/06 02:14:10;;;;;;;1.83;1.73;;;-1.00;99.90;;;;;;5034805;28;20439;-83
2021/04/06 02:16:52;;;;;;;0.80;0.80;;;-1.00;99.90;;;;;;5018344;28;20463;-83
2021/04/06 02:19:35;;;;;;;5.37;2.07;;;-0.80;99.90;;;;;;5034468;28;20506;-84
2021/04/06 02:22:12;;;;;;;2.10;1.07;;;-1.00;99.90;;;;;;5034173;28;20434;-84
2021/04/06 02:24:41;;;;;;;4.93;1.10;;;-0.90;99.90;;;;;;5033779;28;20537;-84
2021/04/06 02:27:09;;;;;;;1.30;1.07;;;-0.90;99.90;;;;;;5034567;28;20496;-83
2021/04/06 02:29:44;;;;;;;2.70;1.70;;;-1.00;99.90;;;;;;5050871;28;20431;-83
2021/04/06 02:32:11;;;;;;;2.47;1.50;;;-0.80;99.90;;;;;;5032950;28;20489;-83
2021/04/06 02:34:39;;;;;;;4.13;2.13;;;-1.50;99.90;;;;;;5033804;28;20434;-83
2021/04/06 02:37:24;;;;;;;1.80;0.67;;;-0.90;99.90;;;;;;5033382;28;20455;-83
2021/04/06 02:39:52;;;;;;;1.70;1.60;;;-1.10;99.90;;;;;;5033774;28;20462;-83
2021/04/06 02:42:27;;;;;;;0.93;0.93;;;-1.10;99.90;;;;;;5035203;28;20423;-84
2021/04/06 02:45:08;;;;;;;4.83;2.23;;;-1.20;99.90;;;;;;5033836;28;20423;-83
2021/04/06 02:47:38;;;;;;;2.33;1.23;;;-1.10;99.90;;;;;;5033767;28;20504;-83
2021/04/06 02:50:06;;;;;;;2.63;1.20;;;-1.30;99.90;;;;;;5034858;28;20411;-83
2021/04/06 02:52:32;;;;;;;2.20;2.00;;;-1.20;99.90;;;;;;5033778;28;20478;-83
2021/04/06 02:54:58;;;;;;;0.60;0.50;;;-1.00;99.90;;;;;;5033955;28;20953;-83
2021/04/06 02:57:26;;;;;;;4.00;0.97;;;-1.20;99.90;;;;;;5033606;28;20469;-83
2021/04/06 02:59:52;;;;;;;2.10;0.80;;;-1.10;99.90;;;;;;5033824;28;20180;-83
2021/04/06 03:02:19;;;;;;;2.50;1.20;;;-1.00;99.90;;;;;;5033417;28;20428;-83
2021/04/06 03:04:46;;;;;;;4.90;1.50;;;-1.10;99.90;;;;;;5033518;28;20419;-83
2021/04/06 03:07:23;;;;;;;5.67;1.60;;;-1.20;99.90;;;;;;5033336;28;20431;-83
2021/04/06 03:09:54;;;;;;;6.23;0.97;;;-1.10;99.90;;;;;;5033578;28;20475;-83
2021/04/06 03:12:21;;;;;;;3.00;1.30;;;-1.00;99.90;;;;;;5033297;28;20467;-83
2021/04/06 03:14:48;;;;;;;2.63;1.50;;;-1.60;99.90;;;;;;5033183;28;20427;-84
2021/04/06 03:17:14;;;;;;;1.23;0.93;;;-1.60;99.90;;;;;;5032583;28;20481;-84
2021/04/06 03:19:40;;;;;;;6.30;1.63;;;-1.60;99.90;;;;;;5032648;28;20434;-84
2021/04/06 03:22:07;;;;;;;3.17;1.47;;;-1.50;99.90;;;;;;5033052;28;20922;-83
2021/04/06 03:24:33;;;;;;;5.20;2.53;;;-1.00;99.90;;;;;;5033071;28;20604;-84
2021/04/06 03:27:06;;;;;;;3.80;2.17;;;-1.50;99.90;;;;;;5033156;28;20484;-83
2021/04/06 03:29:33;;;;;;;10.73;4.50;;;-1.10;99.90;;;;;;5033301;28;20533;-84
2021/04/06 03:32:00;;;;;;;5.73;1.80;;;-1.10;99.90;;;;;;5032089;28;20561;-83
2021/04/06 03:34:31;;;;;;;4.50;1.70;;;-1.30;99.90;;;;;;5033119;28;20470;-84
2021/04/06 03:36:56;;;;;;;3.90;1.80;;;-1.60;99.90;;;;;;5032583;28;20538;-84
2021/04/06 03:39:22;;;;;;;2.10;1.30;;;-1.10;99.90;;;;;;5032863;28;20898;-84
2021/04/06 03:41:48;;;;;;;5.57;2.57;;;-1.30;99.90;;;;;;5033251;28;20185;-84
2021/04/06 03:44:14;;;;;;;7.90;2.37;;;-1.30;99.90;;;;;;5035129;28;20173;-84
2021/04/06 03:46:41;;;;;;;2.70;2.10;;;-1.40;99.90;;;;;;5032833;28;20238;-85
2021/04/06 03:49:17;;;;;;;4.20;2.47;;;-1.70;99.90;;;;;;5032957;28;20787;-83
2021/04/06 03:51:55;;;;;;;4.30;2.07;;;-1.20;99.90;;;;;;5032268;28;20434;-84
2021/04/06 03:54:45;;;;;;;3.20;1.77;;;-1.20;99.90;;;;;;5049443;28;20526;-84
2021/04/06 03:57:50;;;;;;;3.53;2.80;;;-1.30;99.90;;;;;;5049282;28;20416;-84
2021/04/06 04:00:17;;;;;;;1.70;1.37;;;-1.70;99.90;;;;;;5012364;28;20438;-84
2021/04/06 04:02:42;;;;;;;8.83;3.10;;;-0.90;99.90;;;;;;5033634;28;20420;-83
2021/04/06 04:05:08;;;;;;;4.57;3.50;;;-1.10;99.90;;;;;;5033121;28;20423;-83
2021/04/06 04:07:38;;;;;;;13.00;3.20;;;-0.80;99.90;;;;;;5034272;28;20191;-84
2021/04/06 04:10:06;;;;;;;4.23;2.37;;;-0.60;99.90;;;;;;5032800;28;20470;-84
2021/04/06 04:12:31;;;;;;;6.90;2.27;;;-0.80;99.90;;;;;;5049813;28;20531;-84
2021/04/06 04:14:58;;;;;;;3.60;2.27;;;-0.50;99.90;;;;;;5032174;28;20451;-84
2021/04/06 04:17:24;;;;;;;8.63;2.53;;;-0.60;99.90;;;;;;5033307;28;20204;-84
2021/04/06 04:19:50;;;;;;;5.37;3.70;;;-0.30;99.90;;;;;;5032124;28;20435;-84
2021/04/06 04:22:15;;;;;;;4.13;2.10;;;-0.30;99.90;;;;;;5031773;28;20431;-83
2021/04/06 04:24:41;;;;;;;3.00;1.97;;;-0.30;99.90;;;;;;5031320;28;20181;-84
2021/04/06 04:27:07;;;;;;;4.40;2.47;;;-0.20;99.90;;;;;;5032661;28;20295;-84
2021/04/06 04:29:33;;;;;;;3.67;3.37;;;-0.20;99.90;;;;;;5031656;28;20250;-84
2021/04/06 04:31:58;;;;;;;7.43;3.50;;;-0.70;99.90;;;;;;5030697;28;20463;-82
2021/04/06 04:34:24;;;;;;;8.83;4.03;;;-0.60;99.90;;;;;;5031124;28;20200;-83
2021/04/06 04:36:50;;;;;;;4.90;2.50;;;-0.20;99.90;;;;;;5031626;28;20243;-84
2021/04/06 04:39:15;;;;;;;2.77;2.27;;;-0.20;99.90;;;;;;5031803;28;20290;-83
2021/04/06 04:41:41;;;;;;;4.93;2.37;;;-0.20;99.90;;;;;;5031420;28;20646;-84
2021/04/06 04:44:07;;;;;;;17.30;3.43;;;-0.20;99.90;;;;;;5030815;28;20266;-82
2021/04/06 04:46:33;;;;;;;4.87;2.53;;;-0.50;99.90;;;;;;5031637;28;20184;-83
2021/04/06 04:48:59;;;;;;;5.00;2.37;;;-0.20;99.90;;;;;;5030921;28;20180;-83
2021/04/06 04:51:25;;;;;;;6.93;2.80;;;-0.30;99.90;;;;;;5030844;28;20522;-84
2021/04/06 04:53:51;;;;;;;7.73;3.30;;;0.20;99.90;;;;;;5031985;28;20583;-83
2021/04/06 04:56:17;;;;;;;5.40;3.10;;;0.20;99.90;;;;;;5031156;28;20184;-83
2021/04/06 04:58:43;;;;;;;1.97;1.70;;;-0.40;99.90;;;;;;5031049;28;20458;-83
2021/04/06 05:01:08;;;;;;;4.13;2.03;;;-0.40;99.90;;;;;;5032312;28;20451;-83
2021/04/06 05:03:34;;;;;;;7.47;2.63;;;-0.30;99.90;;;;;;5030889;28;20179;-82
2021/04/06 05:06:00;;;;;;;6.90;4.00;;;0.30;99.90;;;;;;5031377;28;20316;-83
2021/04/06 05:08:25;;;;;;;3.90;2.50;;;0.20;99.90;;;;;;5031466;28;20651;-84
2021/04/06 05:10:51;;;;;;;2.63;2.17;;;0.10;99.90;;;;;;5030539;28;20235;-83
2021/04/06 05:13:17;;;;;;;4.17;2.73;;;0.00;99.90;;;;;;5031749;28;20234;-82
2021/04/06 05:15:42;;;;;;;5.10;2.23;;;0.20;99.90;;;;;;5032669;28;20188;-83
2021/04/06 05:18:08;;;;;;;1.57;1.10;;;0.20;99.90;;;;;;5031012;28;20184;-79
2021/04/06 05:20:34;;;;;;;4.37;2.33;;;0.20;99.90;;;;;;5031473;28;20183;-83
2021/04/06 05:23:00;;;;;;;3.40;2.10;;;0.20;99.90;;;;;;5030992;28;20176;-82
2021/04/06 05:25:26;;;;;;;9.40;3.70;;;0.10;99.90;;;;;;5032806;28;20203;-84
2021/04/06 05:27:52;;;;;;;3.40;2.60;;;0.30;99.90;;;;;;5030936;28;20469;-85
2021/04/06 05:30:18;;;;;;;5.60;2.83;;;0.30;99.90;;;;;;5031475;28;20580;-83
2021/04/06 05:32:43;;;;;;;5.63;1.90;;;0.30;99.90;;;;;;5030351;28;20743;-82
2021/04/06 05:35:10;;;;;;;2.53;2.33;;;0.30;99.90;;;;;;5023013;28;20510;-83
2021/04/06 05:37:35;;;;;;;4.70;2.30;;;0.40;99.90;;;;;;5025984;28;20181;-83
2021/04/06 05:40:01;;;;;;;3.20;2.90;;;0.10;99.90;;;;;;5029347;28;20420;-83
2021/04/06 05:42:27;;;;;;;8.53;4.53;;;-0.40;99.90;;;;;;5034034;28;20196;-83
2021/04/06 05:44:53;;;;;;;11.50;7.80;;;-0.40;99.90;;;;;;5028680;28;20192;-85
2021/04/06 05:47:30;;;;;;;7.90;5.30;;;-0.10;99.90;;;;;;5045672;28;20554;-85
2021/04/06 05:49:55;;;;;;;2.37;2.17;;;0.00;99.90;;;;;;5029355;28;20797;-83
2021/04/06 05:52:21;;;;;;;9.57;2.30;;;-0.10;99.90;;;;;;5031040;28;20470;-80
2021/04/06 05:54:46;;;;;;;22.17;14.67;;;-0.50;99.90;;;;;;5038454;28;20897;-84
2021/04/06 05:57:12;;;;;;;27.00;15.10;;;0.30;99.90;;;;;;5025159;28;20193;-83
2021/04/06 05:59:38;;;;;;;8.80;5.57;;;0.10;99.90;;;;;;5009857;28;20184;-83
2021/04/06 06:02:04;;;;;;;9.17;5.93;;;0.20;99.90;;;;;;5009796;28;20185;-84
2021/04/06 06:04:29;;;;;;;10.70;4.10;;;-0.10;99.90;;;;;;5009688;28;20703;-82
2021/04/06 06:06:55;;;;;;;6.00;3.20;;;0.40;99.90;;;;;;5009016;28;20435;-82
2021/04/06 06:09:42;;;;;;;7.17;4.03;;;0.20;99.90;;;;;;5009366;28;20252;-84
2021/04/06 06:12:11;;;;;;;5.37;4.67;;;0.50;99.90;;;;;;5010692;28;20204;-83
2021/04/06 06:14:38;;;;;;;7.87;4.17;;;0.50;99.90;;;;;;5009264;28;20516;-82
2021/04/06 06:17:16;;;;;;;6.50;3.17;;;0.50;99.90;;;;;;5025749;28;20428;-81
2021/04/06 06:19:42;;;;;;;4.83;3.07;;;0.70;99.90;;;;;;5025636;28;20439;-84
2021/04/06 06:22:19;;;;;;;8.60;4.43;;;0.60;99.90;;;;;;5009893;28;20424;-84
2021/04/06 06:24:51;;;;;;;9.70;2.40;;;1.20;99.90;;;;;;5009922;28;20458;-80
2021/04/06 06:27:28;;;;;;;5.90;2.07;;;1.00;99.90;;;;;;5019522;28;20517;-82
2021/04/06 06:29:54;;;;;;;5.70;2.20;;;0.80;99.90;;;;;;5029113;28;20442;-84
2021/04/06 06:32:23;;;;;;;2.47;2.27;;;1.00;99.90;;;;;;5032184;28;20467;-83
2021/04/06 06:34:50;;;;;;;3.10;1.70;;;1.00;99.90;;;;;;5028355;28;20188;-84
2021/04/06 06:37:27;;;;;;;2.80;1.80;;;0.60;99.90;;;;;;5033869;28;20419;-82
2021/04/06 06:40:00;;;;;;;9.03;2.63;;;0.50;99.90;;;;;;5032886;28;20772;-80
2021/04/06 06:42:33;;;;;;;16.87;4.53;;;1.30;99.90;;;;;;5026087;28;20435;-83
2021/04/06 06:44:59;;;;;;;10.57;4.37;;;1.30;99.90;;;;;;5017954;28;20447;-84
2021/04/06 06:47:26;;;;;;;4.70;2.37;;;1.60;99.90;;;;;;5026359;28;20485;-84
2021/04/06 06:49:55;;;;;;;5.13;2.70;;;1.40;99.90;;;;;;5032641;28;20450;-85
2021/04/06 06:52:24;;;;;;;7.73;2.10;;;1.60;99.90;;;;;;5026830;28;20472;-84
2021/04/06 06:55:14;;;;;;;4.90;3.27;;;1.40;99.90;;;;;;5045105;28;20438;-84
2021/04/06 06:57:40;;;;;;;5.43;3.20;;;1.50;99.90;;;;;;5033299;28;20545;-83
2021/04/06 07:00:18;;;;;;;3.00;1.63;;;1.00;99.90;;;;;;5048725;28;20435;-83
2021/04/06 07:02:44;;;;;;;6.53;2.70;;;1.40;99.90;;;;;;5026967;28;20207;-84
2021/04/06 07:05:20;;;;;;;4.97;2.03;;;1.40;99.90;;;;;;5028992;28;20470;-83
2021/04/06 07:08:08;;;;;;;15.27;8.97;;;1.60;99.90;;;;;;5029984;28;20443;-81
2021/04/06 07:10:37;;;;;;;3.20;2.00;;;2.30;99.90;;;;;;5023870;28;20495;-85
2021/04/06 07:13:20;;;;;;;9.53;4.07;;;2.20;99.90;;;;;;5050029;28;20491;-85
2021/04/06 07:15:47;;;;;;;8.60;1.93;;;2.10;99.90;;;;;;5029295;28;20498;-80
2021/04/06 07:18:19;;;;;;;9.23;3.07;;;2.30;99.90;;;;;;5032966;28;20427;-85
2021/04/06 07:20:56;;;;;;;9.23;2.33;;;2.10;99.90;;;;;;5033201;28;20436;-83
2021/04/06 07:24:00;;;;;;;5.57;3.27;;;2.30;99.90;;;;;;5034086;28;20423;-85
2021/04/06 07:26:27;;;;;;;2.73;1.70;;;2.60;99.90;;;;;;4992371;28;20998;-85
2021/04/06 07:28:53;;;;;;;5.20;2.20;;;2.00;99.90;;;;;;5026683;28;20423;-84
2021/04/06 07:31:19;;;;;;;11.43;3.70;;;2.60;99.90;;;;;;5032368;28;20439;-85
2021/04/06 07:33:48;;;;;;;15.03;4.10;;;2.40;99.90;;;;;;5049101;28;20485;-83
2021/04/06 07:36:17;;;;;;;4.73;2.77;;;2.30;99.90;;;;;;5031727;28;20184;-83
2021/04/06 07:38:57;;;;;;;8.60;2.97;;;2.50;99.90;;;;;;5030949;28;20439;-83
2021/04/06 07:41:25;;;;;;;7.13;3.27;;;2.50;99.90;;;;;;5031852;28;20733;-86
2021/04/06 07:43:54;;;;;;;10.30;3.10;;;2.30;99.90;;;;;;5037047;28;20431;-82
2021/04/06 07:46:35;;;;;;;11.33;3.10;;;2.40;99.90;;;;;;5028968;28;20438;-85
2021/04/06 07:49:07;;;;;;;6.33;2.80;;;2.50;99.90;;;;;;5045613;28;20439;-85
2021/04/06 07:51:56;;;;;;;4.90;2.53;;;2.50;99.90;;;;;;5033781;28;20439;-85
2021/04/06 07:54:43;;;;;;;2.87;1.30;;;2.30;99.90;;;;;;5018680;28;20462;-85
2021/04/06 07:57:09;;;;;;;7.53;3.30;;;2.70;99.90;;;;;;5025718;28;21284;-84
2021/04/06 07:59:35;;;;;;;32.97;6.67;;;2.10;99.90;;;;;;5033116;28;20255;-79
2021/04/06 08:02:01;;;;;;;6.10;1.80;;;2.00;99.90;;;;;;5047918;28;20270;-80
2021/04/06 08:04:36;;;;;;;2.00;1.80;;;1.80;99.90;;;;;;5030983;28;20631;-85
2021/04/06 08:07:22;;;;;;;3.53;1.63;;;1.90;99.90;;;;;;5030823;28;20430;-84
2021/04/06 08:09:57;;;;;;;1.93;1.70;;;2.30;99.90;;;;;;5031013;28;20510;-81
2021/04/06 08:12:30;;;;;;;2.60;2.20;;;2.20;99.90;;;;;;5024832;28;20474;-83
2021/04/06 08:15:10;;;;;;;2.43;1.70;;;2.20;99.90;;;;;;5035252;28;20441;-80
2021/04/06 08:17:44;;;;;;;5.00;2.60;;;2.50;99.90;;;;;;5030005;28;20435;-84
2021/04/06 08:20:22;;;;;;;14.67;3.97;;;2.30;99.90;;;;;;5045467;28;20449;-85
2021/04/06 08:22:56;;;;;;;4.50;2.03;;;2.40;99.90;;;;;;5019857;28;20501;-83
2021/04/06 08:25:21;;;;;;;4.03;1.90;;;2.30;99.90;;;;;;5046198;28;20456;-84
2021/04/06 08:27:53;;;;;;;10.03;2.60;;;1.90;99.90;;;;;;5047534;28;20424;-84
2021/04/06 08:30:18;;;;;;;2.37;2.17;;;2.20;99.90;;;;;;5028255;28;20192;-83
2021/04/06 08:32:56;;;;;;;6.47;1.50;;;2.30;99.90;;;;;;5025274;28;20467;-81
2021/04/06 08:35:52;;;;;;;4.90;3.03;;;2.20;99.90;;;;;;5047016;28;20195;-82
2021/04/06 08:38:24;;;;;;;4.10;2.27;;;2.20;99.90;;;;;;5029846;28;20442;-85
2021/04/06 08:40:56;;;;;;;2.23;2.03;;;2.40;99.90;;;;;;5032065;28;20484;-84
2021/04/06 08:43:36;;;;;;;2.20;1.93;;;2.60;99.90;;;;;;5046018;28;20442;-84
2021/04/06 08:46:06;;;;;;;1.80;1.70;;;3.40;99.90;;;;;;5029890;28;21036;-82
2021/04/06 08:48:53;;;;;;;19.87;3.00;;;3.50;99.90;;;;;;5047653;28;20756;-83
2021/04/06 08:51:24;;;;;;;6.20;2.20;;;3.90;99.90;;;;;;5030372;28;20418;-81
2021/04/06 08:54:15;;;;;;;7.90;3.70;;;3.80;99.90;;;;;;5031360;28;20566;-83
2021/04/06 08:56:43;;;;;;;2.53;2.30;;;3.90;99.90;;;;;;5031352;28;20819;-77
2021/04/06 08:59:33;;;;;;;4.10;3.20;;;4.30;99.90;;;;;;5030570;28;20446;-84
2021/04/06 09:02:13;;;;;;;2.83;2.07;;;4.50;99.90;;;;;;5031086;28;20419;-83
2021/04/06 09:04:45;;;;;;;1.67;1.57;;;5.00;99.90;;;;;;5031650;28;20423;-81
2021/04/06 09:07:18;;;;;;;4.10;2.63;;;4.90;99.90;;;;;;5021121;28;20446;-83
2021/04/06 09:09:44;;;;;;;0.97;0.70;;;4.80;99.90;;;;;;5022839;28;20494;-84
2021/04/06 09:12:11;;;;;;;4.03;1.80;;;4.00;99.90;;;;;;5030944;28;20462;-84
2021/04/06 09:14:37;;;;;;;7.70;3.03;;;4.40;99.90;;;;;;5029854;28;20446;-84
2021/04/06 09:17:03;;;;;;;4.68;3.10;;;4.60;99.90;;;;;;5029016;28;20445;-84
2021/04/06 09:19:29;;;;;;;3.07;1.90;;;4.60;99.90;;;;;;5030189;28;20176;-83
2021/04/06 09:22:00;;;;;;;5.43;2.73;;;4.80;99.90;;;;;;5029874;28;20449;-82
2021/04/06 09:24:27;;;;;;;3.90;1.40;;;4.30;99.90;;;;;;5029232;28;20238;-85
2021/04/06 09:26:55;;;;;;;4.13;2.10;;;4.10;99.90;;;;;;5031290;28;20474;-83
2021/04/06 09:29:22;;;;;;;1.97;1.80;;;4.10;99.90;;;;;;5029929;28;20431;-84
2021/04/06 09:32:03;;;;;;;2.40;2.17;;;3.80;99.90;;;;;;5031233;28;20771;-85
2021/04/06 09:34:31;;;;;;;4.40;1.90;;;3.40;99.90;;;;;;5046520;28;20516;-81
2021/04/06 09:37:07;;;;;;;3.80;2.13;;;3.90;99.90;;;;;;5030193;28;20411;-84
2021/04/06 09:39:34;;;;;;;1.80;1.70;;;4.30;98.80;;;;;;5031331;28;20423;-84
2021/04/06 09:42:01;;;;;;;3.63;1.83;;;4.40;99.00;;;;;;5046492;28;20824;-82
2021/04/06 09:44:30;;;;;;;3.90;2.57;;;4.40;98.80;;;;;;5047412;28;20431;-84
2021/04/06 09:46:59;;;;;;;1.37;1.27;;;4.30;97.40;;;;;;5043111;28;20754;-85
2021/04/06 09:49:30;;;;;;;7.40;3.60;;;4.50;95.60;;;;;;5014006;28;20423;-84
2021/04/06 09:51:57;;;;;;;2.10;1.90;;;3.90;94.50;;;;;;5028546;28;20460;-83
2021/04/06 09:54:35;;;;;;;4.10;2.13;;;4.20;97.30;;;;;;5030134;28;20431;-84
2021/04/06 09:57:09;;;;;;;4.20;2.50;;;4.10;96.90;;;;;;5029543;28;20432;-81
2021/04/06 09:59:35;;;;;;;2.90;2.17;;;4.30;99.60;;;;;;5048068;28;20431;-83
2021/04/06 10:02:00;;;;;;;6.67;2.43;;;4.70;92.60;;;;;;5030794;28;20516;-82
2021/04/06 10:04:37;;;;;;;15.83;3.33;;;5.20;91.00;;;;;;5046651;28;20582;-82
2021/04/06 10:07:08;;;;;;;6.03;2.77;;;6.10;87.50;;;;;;5050065;28;20184;-83
2021/04/06 10:09:35;;;;;;;8.70;2.37;;;5.40;59.50;;;;;;5050047;28;20554;-83
2021/04/06 10:12:01;;;;;;;3.50;2.20;;;4.60;60.80;;;;;;5033439;28;20463;-77
2021/04/06 10:14:27;;;;;;;8.00;2.90;;;3.90;81.20;;;;;;5030253;28;20435;-81
2021/04/06 10:17:01;;;;;;;4.33;2.20;;;4.80;92.00;;;;;;5031703;28;20450;-83
2021/04/06 10:19:29;;;;;;;4.23;1.47;;;5.50;76.10;;;;;;5031677;28;20497;-84
2021/04/06 10:22:14;;;;;;;6.33;2.57;;;5.00;75.50;;;;;;5034355;28;20425;-80
2021/04/06 10:24:46;;;;;;;3.10;2.07;;;5.00;66.00;;;;;;5037510;28;20816;-84
2021/04/06 10:27:21;;;;;;;3.53;1.50;;;5.80;56.00;;;;;;5034165;28;20449;-83
2021/04/06 10:29:58;;;;;;;4.10;1.90;;;7.10;42.20;;;;;;5035003;28;21306;-84
2021/04/06 10:32:28;;;;;;;3.67;2.37;;;5.30;25.70;;;;;;5034065;28;20516;-83
2021/04/06 10:35:00;;;;;;;1.90;1.70;;;5.60;36.70;;;;;;5027527;28;20606;-82
2021/04/06 10:37:38;;;;;;;2.23;1.57;;;6.40;24.60;;;;;;5015741;28;20457;-84
2021/04/06 10:40:23;;;;;;;4.10;2.67;;;6.30;10.90;;;;;;5014411;28;20452;-84
2021/04/06 10:42:51;;;;;;;14.07;3.80;;;6.10;20.00;;;;;;5013580;28;20416;-80
2021/04/06 10:45:18;;;;;;;3.60;2.10;;;6.60;21.70;;;;;;5014951;28;20416;-84
2021/04/06 10:47:44;;;;;;;5.63;2.50;;;6.80;5.90;;;;;;5012314;28;20463;-84
2021/04/06 10:50:11;;;;;;;3.90;2.00;;;7.60;11.20;;;;;;5017309;28;20451;-84
2021/04/06 10:52:36;;;;;;;3.63;2.33;;;8.00;1.00;;;;;;5031982;28;20459;-86
2021/04/06 10:55:06;;;;;;;1.90;1.80;;;8.00;1.00;;;;;;5031732;28;20185;-84
2021/04/06 10:57:35;;;;;;;1.23;1.23;;;8.10;1.00;;;;;;5033707;28;20217;-84
2021/04/06 11:00:23;;;;;;;2.70;2.13;;;7.20;1.00;;;;;;5033403;28;20530;-83
2021/04/06 11:03:20;;;;;;;5.20;2.87;;;7.20;1.00;;;;;;5033647;28;20436;-85
2021/04/06 11:05:46;;;;;;;1.67;1.57;;;6.50;2.40;;;;;;5032734;28;20427;-83
2021/04/06 11:08:26;;;;;;;4.63;3.10;;;7.90;12.40;;;;;;5032025;28;20424;-84
2021/04/06 11:10:54;;;;;;;2.80;2.30;;;8.10;1.00;;;;;;5031582;28;20700;-84
2021/04/06 11:13:21;;;;;;;2.33;1.90;;;7.80;1.00;;;;;;5032226;28;20888;-84
2021/04/06 11:15:47;;;;;;;7.57;3.50;;;7.70;1.00;;;;;;5029498;28;20424;-83
2021/04/06 11:18:12;;;;;;;3.60;1.87;;;6.60;1.00;;;;;;5032727;28;20438;-84
2021/04/06 11:20:40;;;;;;;2.43;1.60;;;6.40;1.00;;;;;;5026240;28;20478;-83
2021/04/06 11:23:05;;;;;;;2.90;1.90;;;6.20;1.00;;;;;;5026035;28;20181;-84
2021/04/06 11:25:32;;;;;;;4.10;2.10;;;6.50;1.00;;;;;;5031871;28;20895;-83
2021/04/06 11:28:01;;;;;;;1.83;1.63;;;6.30;1.00;;;;;;5032793;28;20715;-84
2021/04/06 11:30:35;;;;;;;3.60;2.20;;;7.00;1.00;;;;;;5048538;28;20427;-84
2021/04/06 11:33:04;;;;;;;4.63;2.20;;;6.90;1.00;;;;;;5013277;28;20517;-83
2021/04/06 11:35:30;;;;;;;13.53;2.03;;;6.90;1.00;;;;;;5029038;28;20963;-83
2021/04/06 11:37:56;;;;;;;3.80;1.80;;;6.90;1.00;;;;;;5030698;28;20879;-81
2021/04/06 11:40:23;;;;;;;3.43;1.90;;;6.50;1.00;;;;;;5029767;28;20457;-83
2021/04/06 11:42:49;;;;;;;3.23;2.07;;;6.50;1.00;;;;;;5023991;28;20443;-82
2021/04/06 11:45:15;;;;;;;1.40;1.30;;;6.10;1.00;;;;;;5031647;28;20434;-84
2021/04/06 11:47:41;;;;;;;4.37;2.20;;;6.00;1.00;;;;;;5045201;28;20234;-85
2021/04/06 11:50:07;;;;;;;2.27;1.60;;;6.30;1.00;;;;;;5031119;28;20471;-84
2021/04/06 11:52:36;;;;;;;2.73;1.93;;;6.50;1.00;;;;;;5031914;28;20218;-82
2021/04/06 11:55:03;;;;;;;1.33;1.23;;;6.70;1.10;;;;;;5032316;28;20931;-83
2021/04/06 11:57:29;;;;;;;1.23;1.20;;;6.50;1.00;;;;;;5031860;28;20412;-84
2021/04/06 11:59:55;;;;;;;3.83;2.10;;;5.90;1.00;;;;;;5032128;28;20527;-83
2021/04/06 12:02:22;;;;;;;6.13;2.80;;;6.10;1.00;;;;;;5031809;28;20235;-84
2021/04/06 12:04:47;;;;;;;2.87;2.40;;;6.40;1.20;;;;;;5031995;28;20458;-78
2021/04/06 12:07:13;;;;;;;5.43;2.17;;;6.70;1.00;;;;;;5032633;28;20423;-84
2021/04/06 12:09:38;;;;;;;2.43;1.80;;;7.10;1.00;;;;;;5030404;28;20319;-83
2021/04/06 12:12:05;;;;;;;2.93;2.10;;;6.70;1.00;;;;;;5028535;28;20200;-84
2021/04/06 12:14:30;;;;;;;2.37;2.20;;;5.90;1.00;;;;;;5032662;28;20184;-85
2021/04/06 12:16:56;;;;;;;4.73;2.53;;;5.80;1.00;;;;;;5028607;28;20908;-84
2021/04/06 12:19:22;;;;;;;4.93;2.47;;;6.20;1.00;;;;;;5046007;28;20283;-84
2021/04/06 12:21:47;;;;;;;3.73;1.80;;;5.90;1.00;;;;;;5031955;28;20177;-85
2021/04/06 12:24:13;;;;;;;9.37;2.27;;;5.80;1.00;;;;;;5046507;28;20191;-84
2021/04/06 12:26:39;;;;;;;4.10;2.00;;;6.30;1.00;;;;;;5026083;28;20199;-83
2021/04/06 12:29:04;;;;;;;4.83;2.67;;;6.20;1.00;;;;;;5025395;28;20632;-84
2021/04/06 12:31:30;;;;;;;6.83;2.07;;;5.80;1.00;;;;;;5046046;28;20185;-84
2021/04/06 12:33:55;;;;;;;4.00;1.70;;;6.10;1.00;;;;;;5030920;28;20212;-85
2021/04/06 12:36:22;;;;;;;3.13;1.67;;;6.00;1.00;;;;;;5030728;28;20556;-86
2021/04/06 12:38:48;;;;;;;2.70;2.03;;;6.40;1.00;;;;;;5028986;28;20263;-85
2021/04/06 12:41:14;;;;;;;4.77;2.67;;;6.00;1.00;;;;;;5024907;28;21167;-82
2021/04/06 12:43:39;;;;;;;1.83;1.60;;;6.00;1.00;;;;;;5030390;28;20526;-85
2021/04/06 12:46:05;;;;;;;1.97;1.87;;;6.10;1.00;;;;;;5027319;28;20203;-84
2021/04/06 12:48:31;;;;;;;8.00;2.87;;;6.00;1.00;;;;;;5043972;28;20196;-83
2021/04/06 12:50:56;;;;;;;2.07;1.70;;;6.50;1.00;;;;;;5030715;28;20176;-85
2021/04/06 12:53:22;;;;;;;4.43;2.60;;;7.00;1.00;;;;;;5030487;28;20379;-85
2021/04/06 12:55:47;;;;;;;2.50;2.30;;;6.70;1.00;;;;;;5029892;28;20267;-83
2021/04/06 12:58:13;;;;;;;2.00;0.83;;;6.50;1.00;;;;;;5030641;28;20296;-85
2021/04/06 13:00:39;;;;;;;2.83;1.77;;;6.90;1.00;;;;;;5028932;28;20180;-86
2021/04/06 13:03:05;;;;;;;2.63;2.07;;;6.70;1.00;;;;;;5029198;28;20291;-84
2021/04/06 13:05:30;;;;;;;3.50;2.30;;;6.20;1.00;;;;;;5030285;28;20279;-85
2021/04/06 13:07:56;;;;;;;3.53;1.83;;;6.40;1.00;;;;;;5030171;28;20180;-85